sensor_id;sensor_type;location;lat;lon;timestamp;pressure;altitude;pressure_sealevel;temperature;humidity
73240;BME280;61452;40.054;4.110;2023-02-28T00:04:23;100240.28;;;13.09;64.58
73240;BME280;61452;40.054;4.110;2023-02-28T00:09:25;100257.63;;;13.13;63.62
73240;BME280;61452;40.054;4.110;2023-02-28T00:14:29;100254.06;;;13.14;62.92
73240;BME280;61452;40.054;4.110;2023-02-28T00:19:32;100243.38;;;13.15;63.43
73240;BME280;61452;40.054;4.110;2023-02-28T00:24:34;100236.47;;;13.14;63.14
73240;BME280;61452;40.054;4.110;2023-02-28T00:29:37;100231.19;;;13.14;62.89
73240;BME280;61452;40.054;4.110;2023-02-28T00:34:39;100218.75;;;13.16;62.66
73240;BME280;61452;40.054;4.110;2023-02-28T00:39:42;100220.34;;;13.19;62.36
73240;BME280;61452;40.054;4.110;2023-02-28T00:44:45;100228.97;;;13.21;61.69
73240;BME280;61452;40.054;4.110;2023-02-28T00:49:47;100237.50;;;13.24;61.60
73240;BME280;61452;40.054;4.110;2023-02-28T00:54:49;100229.63;;;13.24;62.50
73240;BME280;61452;40.054;4.110;2023-02-28T00:59:51;100231.72;;;13.19;62.48
73240;BME280;61452;40.054;4.110;2023-02-28T01:04:56;100255.44;;;13.19;62.27
73240;BME280;61452;40.054;4.110;2023-02-28T01:09:58;100260.78;;;13.18;61.94
73240;BME280;61452;40.054;4.110;2023-02-28T01:15:00;100246.59;;;13.20;62.15
73240;BME280;61452;40.054;4.110;2023-02-28T01:20:03;100225.72;;;13.17;62.26
73240;BME280;61452;40.054;4.110;2023-02-28T01:25:06;100215.19;;;13.17;62.53
73240;BME280;61452;40.054;4.110;2023-02-28T01:30:09;100206.44;;;13.17;63.70
73240;BME280;61452;40.054;4.110;2023-02-28T01:35:12;100209.28;;;13.14;64.28
73240;BME280;61452;40.054;4.110;2023-02-28T01:40:14;100202.25;;;13.14;64.15
73240;BME280;61452;40.054;4.110;2023-02-28T01:45:30;100189.88;;;13.15;64.30
73240;BME280;61452;40.054;4.110;2023-02-28T01:50:36;100175.06;;;13.14;64.50
73240;BME280;61452;40.054;4.110;2023-02-28T01:55:40;100165.25;;;13.16;64.68
73240;BME280;61452;40.054;4.110;2023-02-28T02:00:45;100153.66;;;13.18;65.53
73240;BME280;61452;40.054;4.110;2023-02-28T02:05:48;100118.50;;;13.19;66.76
73240;BME280;61452;40.054;4.110;2023-02-28T02:10:53;100109.00;;;13.17;67.71
73240;BME280;61452;40.054;4.110;2023-02-28T02:47:45;99958.31;;;13.13;67.92
73240;BME280;61452;40.054;4.110;2023-02-28T02:52:52;99953.66;;;13.17;65.23
73240;BME280;61452;40.054;4.110;2023-02-28T02:58:03;99947.34;;;13.19;65.14
73240;BME280;61452;40.054;4.110;2023-02-28T03:03:08;99962.06;;;13.22;63.39
73240;BME280;61452;40.054;4.110;2023-02-28T03:08:11;99976.91;;;13.23;63.37
73240;BME280;61452;40.054;4.110;2023-02-28T03:18:54;99964.38;;;13.26;67.58
73240;BME280;61452;40.054;4.110;2023-02-28T03:24:24;99960.06;;;13.25;63.67
73240;BME280;61452;40.054;4.110;2023-02-28T03:29:36;99969.00;;;13.23;63.18
73240;BME280;61452;40.054;4.110;2023-02-28T03:34:42;99964.59;;;13.23;63.34
73240;BME280;61452;40.054;4.110;2023-02-28T03:40:00;99968.91;;;13.24;63.04
73240;BME280;61452;40.054;4.110;2023-02-28T03:45:13;99965.31;;;13.25;62.37
73240;BME280;61452;40.054;4.110;2023-02-28T03:50:24;99962.25;;;13.31;64.94
73240;BME280;61452;40.054;4.110;2023-02-28T03:55:33;99971.19;;;13.29;63.30
73240;BME280;61452;40.054;4.110;2023-02-28T04:00:45;99960.78;;;13.27;62.32
73240;BME280;61452;40.054;4.110;2023-02-28T04:05:53;99960.06;;;13.25;62.25
73240;BME280;61452;40.054;4.110;2023-02-28T04:11:04;99966.28;;;13.24;61.99
73240;BME280;61452;40.054;4.110;2023-02-28T04:16:09;99958.28;;;13.26;61.86
73240;BME280;61452;40.054;4.110;2023-02-28T04:21:38;99970.59;;;13.25;62.22
73240;BME280;61452;40.054;4.110;2023-02-28T04:26:43;99971.19;;;13.29;62.33
73240;BME280;61452;40.054;4.110;2023-02-28T04:31:45;99957.28;;;13.27;61.78
73240;BME280;61452;40.054;4.110;2023-02-28T04:36:48;99980.03;;;13.28;61.51
73240;BME280;61452;40.054;4.110;2023-02-28T04:42:13;99989.13;;;13.24;61.58
73240;BME280;61452;40.054;4.110;2023-02-28T04:47:15;99999.66;;;13.24;61.47
73240;BME280;61452;40.054;4.110;2023-02-28T04:52:18;100007.56;;;13.24;61.31
73240;BME280;61452;40.054;4.110;2023-02-28T04:57:20;100024.94;;;13.26;61.28
73240;BME280;61452;40.054;4.110;2023-02-28T05:02:22;100045.78;;;13.29;61.53
73240;BME280;61452;40.054;4.110;2023-02-28T05:07:25;100041.25;;;13.31;61.72
73240;BME280;61452;40.054;4.110;2023-02-28T05:12:28;100041.34;;;13.30;61.47
73240;BME280;61452;40.054;4.110;2023-02-28T05:17:30;100043.25;;;13.28;61.45
73240;BME280;61452;40.054;4.110;2023-02-28T05:22:32;100043.38;;;13.26;61.21
73240;BME280;61452;40.054;4.110;2023-02-28T05:27:35;100052.34;;;13.24;60.99
73240;BME280;61452;40.054;4.110;2023-02-28T05:32:41;100068.97;;;13.24;61.27
73240;BME280;61452;40.054;4.110;2023-02-28T05:37:46;100059.19;;;13.26;61.23
73240;BME280;61452;40.054;4.110;2023-02-28T05:42:50;100054.63;;;13.28;61.07
73240;BME280;61452;40.054;4.110;2023-02-28T05:47:55;100088.75;;;13.30;60.83
73240;BME280;61452;40.054;4.110;2023-02-28T05:52:58;100076.22;;;13.21;60.97
73240;BME280;61452;40.054;4.110;2023-02-28T05:58:00;100100.47;;;13.26;61.01
73240;BME280;61452;40.054;4.110;2023-02-28T06:03:02;100121.66;;;13.24;60.68
73240;BME280;61452;40.054;4.110;2023-02-28T06:08:04;100123.44;;;13.24;60.41
73240;BME280;61452;40.054;4.110;2023-02-28T06:13:10;100141.53;;;13.28;60.29
73240;BME280;61452;40.054;4.110;2023-02-28T06:18:13;100151.13;;;13.29;60.51
73240;BME280;61452;40.054;4.110;2023-02-28T06:23:15;100154.59;;;13.30;60.31
73240;BME280;61452;40.054;4.110;2023-02-28T06:28:17;100165.34;;;13.27;60.15
73240;BME280;61452;40.054;4.110;2023-02-28T06:33:20;100160.31;;;13.24;60.34
73240;BME280;61452;40.054;4.110;2023-02-28T06:38:22;100167.34;;;13.23;60.42
73240;BME280;61452;40.054;4.110;2023-02-28T06:43:28;100195.38;;;13.24;60.20
73240;BME280;61452;40.054;4.110;2023-02-28T06:48:30;100196.13;;;13.26;60.13
73240;BME280;61452;40.054;4.110;2023-02-28T06:53:36;100233.72;;;13.28;60.02
73240;BME280;61452;40.054;4.110;2023-02-28T06:58:39;100241.63;;;13.28;60.03
73240;BME280;61452;40.054;4.110;2023-02-28T07:03:42;100255.94;;;13.24;60.20
73240;BME280;61452;40.054;4.110;2023-02-28T07:08:44;100260.28;;;13.25;60.29
73240;BME280;61452;40.054;4.110;2023-02-28T07:13:46;100278.81;;;13.24;59.81
73240;BME280;61452;40.054;4.110;2023-02-28T07:18:49;100295.44;;;13.24;59.69
73240;BME280;61452;40.054;4.110;2023-02-28T07:23:51;100309.38;;;13.26;59.71
73240;BME280;61452;40.054;4.110;2023-02-28T07:28:53;100318.94;;;13.27;60.02
73240;BME280;61452;40.054;4.110;2023-02-28T07:33:56;100325.16;;;13.26;59.57
73240;BME280;61452;40.054;4.110;2023-02-28T07:38:58;100346.25;;;13.26;59.84
73240;BME280;61452;40.054;4.110;2023-02-28T07:44:00;100368.34;;;13.24;60.01
73240;BME280;61452;40.054;4.110;2023-02-28T07:49:04;100376.34;;;13.22;60.03
73240;BME280;61452;40.054;4.110;2023-02-28T07:54:06;100385.94;;;13.23;59.87
73240;BME280;61452;40.054;4.110;2023-02-28T07:59:09;100403.34;;;13.26;59.46
73240;BME280;61452;40.054;4.110;2023-02-28T08:04:11;100421.56;;;13.29;59.49
73240;BME280;61452;40.054;4.110;2023-02-28T08:09:13;100420.72;;;13.28;59.75
73240;BME280;61452;40.054;4.110;2023-02-28T08:14:16;100436.59;;;13.27;60.18
73240;BME280;61452;40.054;4.110;2023-02-28T08:19:19;100465.78;;;13.24;60.08
73240;BME280;61452;40.054;4.110;2023-02-28T08:24:21;100460.53;;;13.24;59.89
73240;BME280;61452;40.054;4.110;2023-02-28T08:29:24;100471.91;;;13.24;59.75
73240;BME280;61452;40.054;4.110;2023-02-28T08:34:26;100499.94;;;13.25;59.50
73240;BME280;61452;40.054;4.110;2023-02-28T08:39:29;100512.16;;;13.26;59.19
73240;BME280;61452;40.054;4.110;2023-02-28T08:44:31;100532.25;;;13.27;59.57
73240;BME280;61452;40.054;4.110;2023-02-28T08:49:33;100537.75;;;13.24;59.85
73240;BME280;61452;40.054;4.110;2023-02-28T08:54:35;100546.59;;;13.23;59.45
73240;BME280;61452;40.054;4.110;2023-02-28T08:59:38;100555.41;;;13.22;59.40
73240;BME280;61452;40.054;4.110;2023-02-28T09:04:40;100562.38;;;13.23;59.29
73240;BME280;61452;40.054;4.110;2023-02-28T09:09:43;100577.25;;;13.24;59.33
73240;BME280;61452;40.054;4.110;2023-02-28T09:14:56;100590.22;;;13.27;59.13
73240;BME280;61452;40.054;4.110;2023-02-28T09:19:58;100598.97;;;13.28;59.49
73240;BME280;61452;40.054;4.110;2023-02-28T09:25:00;100624.66;;;13.24;59.49
73240;BME280;61452;40.054;4.110;2023-02-28T09:30:03;100639.53;;;13.25;59.44
73240;BME280;61452;40.054;4.110;2023-02-28T09:35:06;100645.81;;;13.23;59.65
73240;BME280;61452;40.054;4.110;2023-02-28T09:40:09;100661.53;;;13.24;58.86
73240;BME280;61452;40.054;4.110;2023-02-28T09:45:30;100671.13;;;13.25;58.75
73240;BME280;61452;40.054;4.110;2023-02-28T09:50:43;100679.66;;;13.29;58.75
73240;BME280;61452;40.054;4.110;2023-02-28T09:55:58;100699.03;;;13.28;58.67
73240;BME280;61452;40.054;4.110;2023-02-28T10:01:12;100707.06;;;13.26;59.05
73240;BME280;61452;40.054;4.110;2023-02-28T10:06:22;100720.25;;;13.26;59.17
73240;BME280;61452;40.054;4.110;2023-02-28T10:11:29;100713.34;;;13.24;59.01
73240;BME280;61452;40.054;4.110;2023-02-28T10:16:44;100740.53;;;13.24;58.73
73240;BME280;61452;40.054;4.110;2023-02-28T10:22:17;100750.16;;;13.25;58.62
73240;BME280;61452;40.054;4.110;2023-02-28T10:27:23;100771.00;;;13.28;58.59
73240;BME280;61452;40.054;4.110;2023-02-28T10:32:34;100781.63;;;13.27;58.92
73240;BME280;61452;40.054;4.110;2023-02-28T10:37:41;100796.63;;;13.26;59.02
73240;BME280;61452;40.054;4.110;2023-02-28T10:43:11;100793.22;;;13.24;58.92
73240;BME280;61452;40.054;4.110;2023-02-28T10:58:25;100805.19;;;13.30;59.01
73240;BME280;61452;40.054;4.110;2023-02-28T11:03:30;100817.50;;;13.29;58.86
73240;BME280;61452;40.054;4.110;2023-02-28T11:08:33;100831.34;;;13.33;59.00
73240;BME280;61452;40.054;4.110;2023-02-28T11:13:36;100840.28;;;13.30;59.26
73240;BME280;61452;40.054;4.110;2023-02-28T11:18:54;100844.69;;;13.30;59.30
73240;BME280;61452;40.054;4.110;2023-02-28T11:24:19;100868.56;;;13.27;59.17
73240;BME280;61452;40.054;4.110;2023-02-28T11:29:27;100872.81;;;13.29;58.95
73240;BME280;61452;40.054;4.110;2023-02-28T11:34:30;100876.28;;;13.30;58.99
73240;BME280;61452;40.054;4.110;2023-02-28T11:39:33;100882.56;;;13.27;59.04
73240;BME280;61452;40.054;4.110;2023-02-28T11:45:13;100883.25;;;13.31;59.10
73240;BME280;61452;40.054;4.110;2023-02-28T11:51:22;100891.16;;;13.31;59.08
73240;BME280;61452;40.054;4.110;2023-02-28T12:01:28;100904.34;;;13.31;59.06
73240;BME280;61452;40.054;4.110;2023-02-28T12:11:48;100903.28;;;13.33;58.79
73240;BME280;61452;40.054;4.110;2023-02-28T12:17:06;100922.59;;;13.34;58.75
73240;BME280;61452;40.054;4.110;2023-02-28T12:27:51;100944.34;;;13.38;60.16
73240;BME280;61452;40.054;4.110;2023-02-28T12:33:20;100923.19;;;13.39;60.28
73240;BME280;61452;40.054;4.110;2023-02-28T12:38:34;100924.88;;;13.40;61.23
73240;BME280;61452;40.054;4.110;2023-02-28T12:43:52;100920.38;;;13.42;62.34
73240;BME280;61452;40.054;4.110;2023-02-28T12:49:00;100927.25;;;13.45;64.44
73240;BME280;61452;40.054;4.110;2023-02-28T12:59:42;100943.81;;;13.47;63.06
73240;BME280;61452;40.054;4.110;2023-02-28T13:09:55;100962.25;;;13.47;63.72
73240;BME280;61452;40.054;4.110;2023-02-28T13:15:08;100964.81;;;13.48;63.65
73240;BME280;61452;40.054;4.110;2023-02-28T13:20:22;100994.72;;;13.47;66.29
73240;BME280;61452;40.054;4.110;2023-02-28T13:46:35;100995.75;;;13.45;65.56
73240;BME280;61452;40.054;4.110;2023-02-28T13:51:46;101030.09;;;13.43;65.74
73240;BME280;61452;40.054;4.110;2023-02-28T14:02:37;101015.88;;;13.46;68.28
73240;BME280;61452;40.054;4.110;2023-02-28T14:07:53;101013.50;;;13.41;68.54
73240;BME280;61452;40.054;4.110;2023-02-28T14:18:13;101036.47;;;13.39;67.28
73240;BME280;61452;40.054;4.110;2023-02-28T14:39:28;101108.53;;;13.38;67.93
73240;BME280;61452;40.054;4.110;2023-02-28T14:44:36;101077.00;;;13.36;67.72
73240;BME280;61452;40.054;4.110;2023-02-28T14:49:44;101098.16;;;13.35;66.79
73240;BME280;61452;40.054;4.110;2023-02-28T14:55:10;101096.47;;;13.34;65.77
73240;BME280;61452;40.054;4.110;2023-02-28T15:00:22;101106.91;;;13.35;65.52
73240;BME280;61452;40.054;4.110;2023-02-28T15:10:29;101136.69;;;13.38;67.17
73240;BME280;61452;40.054;4.110;2023-02-28T15:15:51;101144.66;;;13.36;67.71
73240;BME280;61452;40.054;4.110;2023-02-28T15:21:07;101144.84;;;13.33;67.00
73240;BME280;61452;40.054;4.110;2023-02-28T15:26:32;101140.56;;;13.30;66.55
73240;BME280;61452;40.054;4.110;2023-02-28T15:31:41;101154.53;;;13.32;65.79
73240;BME280;61452;40.054;4.110;2023-02-28T15:36:57;101135.22;;;13.32;65.21
73240;BME280;61452;40.054;4.110;2023-02-28T15:42:10;101148.41;;;13.32;65.70
73240;BME280;61452;40.054;4.110;2023-02-28T15:47:23;101159.69;;;13.34;66.92
73240;BME280;61452;40.054;4.110;2023-02-28T15:52:37;101163.28;;;13.33;67.11
73240;BME280;61452;40.054;4.110;2023-02-28T15:57:40;101182.47;;;13.35;65.71
73240;BME280;61452;40.054;4.110;2023-02-28T16:02:43;101179.84;;;13.35;65.50
73240;BME280;61452;40.054;4.110;2023-02-28T16:07:45;101202.69;;;13.34;65.11
73240;BME280;61452;40.054;4.110;2023-02-28T16:12:48;101217.56;;;13.35;65.08
73240;BME280;61452;40.054;4.110;2023-02-28T16:17:52;101226.25;;;13.38;65.09
73240;BME280;61452;40.054;4.110;2023-02-28T16:22:54;101223.75;;;13.34;65.67
73240;BME280;61452;40.054;4.110;2023-02-28T16:27:57;101206.25;;;13.33;66.35
73240;BME280;61452;40.054;4.110;2023-02-28T16:33:02;101226.50;;;13.33;65.55
73240;BME280;61452;40.054;4.110;2023-02-28T16:38:04;101248.41;;;13.33;64.65
73240;BME280;61452;40.054;4.110;2023-02-28T16:43:15;101268.66;;;13.33;64.41
73240;BME280;61452;40.054;4.110;2023-02-28T16:48:18;101266.09;;;13.31;63.92
73240;BME280;61452;40.054;4.110;2023-02-28T16:53:21;101287.09;;;13.33;64.04
73240;BME280;61452;40.054;4.110;2023-02-28T16:58:23;101269.59;;;13.32;64.81
73240;BME280;61452;40.054;4.110;2023-02-28T17:03:28;101281.91;;;13.31;65.33
73240;BME280;61452;40.054;4.110;2023-02-28T17:08:34;101279.41;;;13.28;65.27
73240;BME280;61452;40.054;4.110;2023-02-28T17:13:37;101270.91;;;13.23;64.77
73240;BME280;61452;40.054;4.110;2023-02-28T17:18:39;101308.63;;;13.24;64.57
73240;BME280;61452;40.054;4.110;2023-02-28T17:23:41;101320.81;;;13.26;64.30
73240;BME280;61452;40.054;4.110;2023-02-28T17:28:43;101326.91;;;13.27;63.91
73240;BME280;61452;40.054;4.110;2023-02-28T17:33:45;101323.34;;;13.28;64.27
73240;BME280;61452;40.054;4.110;2023-02-28T17:38:48;101342.63;;;13.28;64.62
73240;BME280;61452;40.054;4.110;2023-02-28T17:43:50;101345.34;;;13.27;64.40
73240;BME280;61452;40.054;4.110;2023-02-28T17:48:53;101347.16;;;13.26;63.91
73240;BME280;61452;40.054;4.110;2023-02-28T17:53:55;101372.72;;;13.24;63.79
73240;BME280;61452;40.054;4.110;2023-02-28T17:58:57;101366.41;;;13.27;63.61
73240;BME280;61452;40.054;4.110;2023-02-28T18:04:00;101363.88;;;13.25;63.35
73240;BME280;61452;40.054;4.110;2023-02-28T18:09:02;101383.25;;;13.24;63.87
73240;BME280;61452;40.054;4.110;2023-02-28T18:14:04;101382.16;;;13.28;64.61
73240;BME280;61452;40.054;4.110;2023-02-28T18:19:06;101389.31;;;13.26;64.82
73240;BME280;61452;40.054;4.110;2023-02-28T18:24:10;101393.59;;;13.27;63.82
73240;BME280;61452;40.054;4.110;2023-02-28T18:29:25;101398.03;;;13.27;63.20
73240;BME280;61452;40.054;4.110;2023-02-28T18:34:28;101410.13;;;13.31;62.86
73240;BME280;61452;40.054;4.110;2023-02-28T18:39:31;101408.34;;;13.31;62.55
73240;BME280;61452;40.054;4.110;2023-02-28T18:44:35;101410.06;;;13.32;62.79
73240;BME280;61452;40.054;4.110;2023-02-28T18:49:37;101425.94;;;13.31;64.05
73240;BME280;61452;40.054;4.110;2023-02-28T18:54:39;101452.41;;;13.28;63.00
73240;BME280;61452;40.054;4.110;2023-02-28T18:59:41;101434.91;;;13.27;62.75
73240;BME280;61452;40.054;4.110;2023-02-28T19:04:44;101434.91;;;13.27;62.24
73240;BME280;61452;40.054;4.110;2023-02-28T19:09:46;101448.94;;;13.27;62.13
73240;BME280;61452;40.054;4.110;2023-02-28T19:14:48;101431.44;;;13.26;61.93
73240;BME280;61452;40.054;4.110;2023-02-28T19:19:50;101451.44;;;13.30;61.97
73240;BME280;61452;40.054;4.110;2023-02-28T19:24:52;101463.81;;;13.28;63.18
73240;BME280;61452;40.054;4.110;2023-02-28T19:29:54;101441.88;;;13.28;62.55
73240;BME280;61452;40.054;4.110;2023-02-28T19:34:59;101462.09;;;13.27;62.18
73240;BME280;61452;40.054;4.110;2023-02-28T19:40:02;101442.75;;;13.28;61.79
73240;BME280;61452;40.054;4.110;2023-02-28T19:45:05;101455.00;;;13.29;61.71
73240;BME280;61452;40.054;4.110;2023-02-28T19:50:08;101454.31;;;13.26;61.52
73240;BME280;61452;40.054;4.110;2023-02-28T19:55:10;101459.28;;;13.32;62.24
73240;BME280;61452;40.054;4.110;2023-02-28T20:00:14;101480.25;;;13.33;62.97
73240;BME280;61452;40.054;4.110;2023-02-28T20:05:16;101470.72;;;13.31;63.42
73240;BME280;61452;40.054;4.110;2023-02-28T20:10:18;101473.59;;;13.26;62.47
73240;BME280;61452;40.054;4.110;2023-02-28T20:15:21;101497.31;;;13.26;61.76
73240;BME280;61452;40.054;4.110;2023-02-28T20:20:23;101500.88;;;13.25;61.23
73240;BME280;61452;40.054;4.110;2023-02-28T20:25:25;101484.97;;;13.27;60.93
73240;BME280;61452;40.054;4.110;2023-02-28T20:30:27;101489.31;;;13.28;60.99
73240;BME280;61452;40.054;4.110;2023-02-28T20:35:30;101510.25;;;13.31;62.02
73240;BME280;61452;40.054;4.110;2023-02-28T20:40:32;101515.66;;;13.28;62.25
73240;BME280;61452;40.054;4.110;2023-02-28T20:45:34;101514.09;;;13.24;61.64
73240;BME280;61452;40.054;4.110;2023-02-28T20:50:36;101518.50;;;13.23;61.24
73240;BME280;61452;40.054;4.110;2023-02-28T20:55:39;101548.34;;;13.24;60.57
73240;BME280;61452;40.054;4.110;2023-02-28T21:00:41;101522.84;;;13.24;60.26
73240;BME280;61452;40.054;4.110;2023-02-28T21:05:43;101552.53;;;13.28;60.45
73240;BME280;61452;40.054;4.110;2023-02-28T21:10:45;101528.81;;;13.28;60.74
73240;BME280;61452;40.054;4.110;2023-02-28T21:15:47;101533.47;;;13.23;61.04
73240;BME280;61452;40.054;4.110;2023-02-28T21:20:49;101543.06;;;13.24;60.64
73240;BME280;61452;40.054;4.110;2023-02-28T21:25:51;101547.50;;;13.23;60.31
73240;BME280;61452;40.054;4.110;2023-02-28T21:30:59;101547.50;;;13.23;60.13
73240;BME280;61452;40.054;4.110;2023-02-28T21:36:04;101554.69;;;13.20;60.58
73240;BME280;61452;40.054;4.110;2023-02-28T21:41:15;101554.53;;;13.23;60.73
73240;BME280;61452;40.054;4.110;2023-02-28T21:46:20;101565.94;;;13.23;61.38
73240;BME280;61452;40.054;4.110;2023-02-28T21:51:26;101571.34;;;13.20;61.39
73240;BME280;61452;40.054;4.110;2023-02-28T21:56:31;101568.84;;;13.17;60.87
73240;BME280;61452;40.054;4.110;2023-02-28T22:01:37;101574.19;;;13.16;60.93
73240;BME280;61452;40.054;4.110;2023-02-28T22:06:40;101593.53;;;13.15;60.45
73240;BME280;61452;40.054;4.110;2023-02-28T22:11:42;101576.75;;;13.17;59.94
73240;BME280;61452;40.054;4.110;2023-02-28T22:16:44;101585.44;;;13.19;60.26
73240;BME280;61452;40.054;4.110;2023-02-28T22:21:54;101564.69;;;13.12;60.43
73240;BME280;61452;40.054;4.110;2023-02-28T22:26:56;101604.94;;;13.15;60.55
73240;BME280;61452;40.054;4.110;2023-02-28T22:31:59;101600.63;;;13.14;59.98
73240;BME280;61452;40.054;4.110;2023-02-28T22:37:01;101603.16;;;13.16;59.59
73240;BME280;61452;40.054;4.110;2023-02-28T22:42:03;101592.72;;;13.14;59.39
73240;BME280;61452;40.054;4.110;2023-02-28T22:47:05;101611.91;;;13.16;58.97
73240;BME280;61452;40.054;4.110;2023-02-28T22:52:08;101607.50;;;13.17;58.62
73240;BME280;61452;40.054;4.110;2023-02-28T22:57:10;101622.50;;;13.15;59.54
73240;BME280;61452;40.054;4.110;2023-02-28T23:02:14;101613.00;;;13.12;59.85
73240;BME280;61452;40.054;4.110;2023-02-28T23:07:16;101596.31;;;13.12;60.00
73240;BME280;61452;40.054;4.110;2023-02-28T23:12:19;101618.25;;;13.12;59.77
73240;BME280;61452;40.054;4.110;2023-02-28T23:17:21;101611.31;;;13.10;59.45
73240;BME280;61452;40.054;4.110;2023-02-28T23:22:23;101624.63;;;13.07;59.31
73240;BME280;61452;40.054;4.110;2023-02-28T23:27:26;101618.34;;;13.09;59.29
73240;BME280;61452;40.054;4.110;2023-02-28T23:32:28;101631.44;;;13.12;59.84
73240;BME280;61452;40.054;4.110;2023-02-28T23:37:30;101641.91;;;13.14;60.49
73240;BME280;61452;40.054;4.110;2023-02-28T23:42:33;101645.53;;;13.10;60.28
73240;BME280;61452;40.054;4.110;2023-02-28T23:47:36;101644.78;;;13.08;59.80
73240;BME280;61452;40.054;4.110;2023-02-28T23:52:38;101648.28;;;13.08;59.63
73240;BME280;61452;40.054;4.110;2023-02-28T23:57:41;101652.69;;;13.08;59.33
